sensor_id;sensor_type;location;lat;lon;timestamp;P1;durP1;ratioP1;P2;durP2;ratioP2
85662;SDS011;76094;55.506;37.950;2024-02-26T00:01:53;7.63;;;2.60;;
85662;SDS011;76094;55.506;37.950;2024-02-26T00:04:20;7.00;;;3.10;;
85662;SDS011;76094;55.506;37.950;2024-02-26T00:06:47;11.80;;;2.85;;
85662;SDS011;76094;55.506;37.950;2024-02-26T00:09:16;4.13;;;2.45;;
85662;SDS011;76094;55.506;37.950;2024-02-26T00:11:43;6.43;;;2.60;;
85662;SDS011;76094;55.506;37.950;2024-02-26T00:14:09;6.65;;;3.00;;
85662;SDS011;76094;55.506;37.950;2024-02-26T00:16:35;4.78;;;2.70;;
85662;SDS011;76094;55.506;37.950;2024-02-26T00:19:02;8.93;;;3.05;;
85662;SDS011;76094;55.506;37.950;2024-02-26T00:21:28;6.15;;;2.50;;
85662;SDS011;76094;55.506;37.950;2024-02-26T00:23:55;4.65;;;2.55;;
85662;SDS011;76094;55.506;37.950;2024-02-26T00:26:21;6.57;;;2.60;;
85662;SDS011;76094;55.506;37.950;2024-02-26T00:28:47;5.10;;;2.70;;
85662;SDS011;76094;55.506;37.950;2024-02-26T00:31:14;5.05;;;2.40;;
85662;SDS011;76094;55.506;37.950;2024-02-26T00:33:40;10.05;;;2.97;;
85662;SDS011;76094;55.506;37.950;2024-02-26T00:36:07;4.78;;;2.15;;
85662;SDS011;76094;55.506;37.950;2024-02-26T00:38:33;8.48;;;3.13;;
85662;SDS011;76094;55.506;37.950;2024-02-26T00:40:59;8.98;;;3.10;;
85662;SDS011;76094;55.506;37.950;2024-02-26T00:43:26;3.95;;;2.53;;
85662;SDS011;76094;55.506;37.950;2024-02-26T00:45:52;5.25;;;2.75;;
85662;SDS011;76094;55.506;37.950;2024-02-26T00:48:18;6.05;;;2.40;;
85662;SDS011;76094;55.506;37.950;2024-02-26T00:50:44;7.82;;;2.70;;
85662;SDS011;76094;55.506;37.950;2024-02-26T00:53:11;5.75;;;2.33;;
85662;SDS011;76094;55.506;37.950;2024-02-26T00:55:37;5.72;;;2.70;;
85662;SDS011;76094;55.506;37.950;2024-02-26T00:58:03;6.90;;;2.10;;
85662;SDS011;76094;55.506;37.950;2024-02-26T01:00:30;6.70;;;2.33;;
85662;SDS011;76094;55.506;37.950;2024-02-26T01:02:56;8.20;;;2.65;;
85662;SDS011;76094;55.506;37.950;2024-02-26T01:05:23;4.88;;;2.30;;
85662;SDS011;76094;55.506;37.950;2024-02-26T01:07:49;4.32;;;2.30;;
85662;SDS011;76094;55.506;37.950;2024-02-26T01:10:15;6.90;;;2.08;;
85662;SDS011;76094;55.506;37.950;2024-02-26T01:12:43;8.23;;;2.60;;
85662;SDS011;76094;55.506;37.950;2024-02-26T01:15:09;3.35;;;2.15;;
85662;SDS011;76094;55.506;37.950;2024-02-26T01:17:36;4.07;;;2.10;;
85662;SDS011;76094;55.506;37.950;2024-02-26T01:20:02;10.82;;;2.33;;
85662;SDS011;76094;55.506;37.950;2024-02-26T01:22:29;4.75;;;2.38;;
85662;SDS011;76094;55.506;37.950;2024-02-26T01:24:56;3.70;;;1.90;;
85662;SDS011;76094;55.506;37.950;2024-02-26T01:27:22;5.85;;;2.20;;
85662;SDS011;76094;55.506;37.950;2024-02-26T01:29:52;5.10;;;2.28;;
85662;SDS011;76094;55.506;37.950;2024-02-26T01:32:19;13.32;;;2.50;;
85662;SDS011;76094;55.506;37.950;2024-02-26T01:34:45;4.40;;;2.20;;
85662;SDS011;76094;55.506;37.950;2024-02-26T01:37:12;7.40;;;2.35;;
85662;SDS011;76094;55.506;37.950;2024-02-26T01:39:38;7.43;;;2.70;;
85662;SDS011;76094;55.506;37.950;2024-02-26T01:42:06;5.75;;;2.03;;
85662;SDS011;76094;55.506;37.950;2024-02-26T01:44:32;4.63;;;1.88;;
85662;SDS011;76094;55.506;37.950;2024-02-26T01:46:59;5.13;;;2.33;;
85662;SDS011;76094;55.506;37.950;2024-02-26T01:49:27;2.72;;;1.73;;
85662;SDS011;76094;55.506;37.950;2024-02-26T01:51:54;3.20;;;2.15;;
85662;SDS011;76094;55.506;37.950;2024-02-26T01:54:21;5.80;;;2.45;;
85662;SDS011;76094;55.506;37.950;2024-02-26T01:56:47;4.55;;;2.45;;
85662;SDS011;76094;55.506;37.950;2024-02-26T01:59:15;6.07;;;2.50;;
85662;SDS011;76094;55.506;37.950;2024-02-26T02:01:42;4.28;;;2.15;;
85662;SDS011;76094;55.506;37.950;2024-02-26T02:04:11;8.30;;;2.03;;
85662;SDS011;76094;55.506;37.950;2024-02-26T02:06:38;6.80;;;1.83;;
85662;SDS011;76094;55.506;37.950;2024-02-26T02:09:05;4.63;;;2.00;;
85662;SDS011;76094;55.506;37.950;2024-02-26T02:11:33;5.57;;;2.28;;
85662;SDS011;76094;55.506;37.950;2024-02-26T02:14:00;5.60;;;2.10;;
85662;SDS011;76094;55.506;37.950;2024-02-26T02:16:26;3.97;;;2.13;;
85662;SDS011;76094;55.506;37.950;2024-02-26T02:18:52;4.78;;;2.08;;
85662;SDS011;76094;55.506;37.950;2024-02-26T02:21:19;6.30;;;2.53;;
85662;SDS011;76094;55.506;37.950;2024-02-26T02:23:45;6.53;;;2.25;;
85662;SDS011;76094;55.506;37.950;2024-02-26T02:26:12;7.97;;;2.40;;
85662;SDS011;76094;55.506;37.950;2024-02-26T02:28:39;5.55;;;2.10;;
85662;SDS011;76094;55.506;37.950;2024-02-26T02:31:06;3.75;;;2.10;;
85662;SDS011;76094;55.506;37.950;2024-02-26T02:33:33;3.13;;;2.25;;
85662;SDS011;76094;55.506;37.950;2024-02-26T02:36:03;4.82;;;2.10;;
85662;SDS011;76094;55.506;37.950;2024-02-26T02:38:29;3.95;;;2.65;;
85662;SDS011;76094;55.506;37.950;2024-02-26T02:40:57;3.78;;;2.13;;
85662;SDS011;76094;55.506;37.950;2024-02-26T02:43:24;4.18;;;1.80;;
85662;SDS011;76094;55.506;37.950;2024-02-26T02:45:50;2.22;;;1.75;;
85662;SDS011;76094;55.506;37.950;2024-02-26T02:48:17;7.53;;;2.30;;
85662;SDS011;76094;55.506;37.950;2024-02-26T02:50:44;5.80;;;2.88;;
85662;SDS011;76094;55.506;37.950;2024-02-26T02:53:11;5.50;;;2.25;;
85662;SDS011;76094;55.506;37.950;2024-02-26T02:55:37;3.63;;;2.15;;
85662;SDS011;76094;55.506;37.950;2024-02-26T02:58:04;4.80;;;2.20;;
85662;SDS011;76094;55.506;37.950;2024-02-26T03:00:30;3.85;;;1.92;;
85662;SDS011;76094;55.506;37.950;2024-02-26T03:02:57;5.43;;;2.47;;
85662;SDS011;76094;55.506;37.950;2024-02-26T03:05:23;3.95;;;2.45;;
85662;SDS011;76094;55.506;37.950;2024-02-26T03:07:49;4.97;;;2.25;;
85662;SDS011;76094;55.506;37.950;2024-02-26T03:10:15;6.55;;;2.70;;
85662;SDS011;76094;55.506;37.950;2024-02-26T03:12:42;3.65;;;2.55;;
85662;SDS011;76094;55.506;37.950;2024-02-26T03:15:08;4.28;;;2.10;;
85662;SDS011;76094;55.506;37.950;2024-02-26T03:17:35;4.32;;;2.38;;
85662;SDS011;76094;55.506;37.950;2024-02-26T03:20:01;4.30;;;2.40;;
85662;SDS011;76094;55.506;37.950;2024-02-26T03:22:29;4.80;;;2.50;;
85662;SDS011;76094;55.506;37.950;2024-02-26T03:24:57;7.20;;;2.85;;
85662;SDS011;76094;55.506;37.950;2024-02-26T03:27:23;7.45;;;2.95;;
85662;SDS011;76094;55.506;37.950;2024-02-26T03:29:50;5.22;;;2.25;;
85662;SDS011;76094;55.506;37.950;2024-02-26T03:32:17;6.75;;;2.90;;
85662;SDS011;76094;55.506;37.950;2024-02-26T03:34:43;11.30;;;2.90;;
85662;SDS011;76094;55.506;37.950;2024-02-26T03:37:09;10.15;;;3.78;;
85662;SDS011;76094;55.506;37.950;2024-02-26T03:39:37;9.05;;;4.35;;
85662;SDS011;76094;55.506;37.950;2024-02-26T03:42:03;15.57;;;4.50;;
85662;SDS011;76094;55.506;37.950;2024-02-26T03:44:30;9.15;;;4.13;;
85662;SDS011;76094;55.506;37.950;2024-02-26T03:46:56;14.45;;;4.22;;
85662;SDS011;76094;55.506;37.950;2024-02-26T03:49:22;8.48;;;3.03;;
85662;SDS011;76094;55.506;37.950;2024-02-26T03:51:48;7.32;;;3.30;;
85662;SDS011;76094;55.506;37.950;2024-02-26T03:54:15;5.95;;;2.95;;
85662;SDS011;76094;55.506;37.950;2024-02-26T03:56:41;7.00;;;3.10;;
85662;SDS011;76094;55.506;37.950;2024-02-26T03:59:07;7.40;;;3.17;;
85662;SDS011;76094;55.506;37.950;2024-02-26T04:01:34;4.72;;;2.65;;
85662;SDS011;76094;55.506;37.950;2024-02-26T04:04:00;9.38;;;3.38;;
85662;SDS011;76094;55.506;37.950;2024-02-26T04:06:27;6.00;;;2.60;;
85662;SDS011;76094;55.506;37.950;2024-02-26T04:08:53;5.75;;;2.58;;
85662;SDS011;76094;55.506;37.950;2024-02-26T04:11:20;12.20;;;2.80;;
85662;SDS011;76094;55.506;37.950;2024-02-26T04:13:47;10.70;;;2.83;;
85662;SDS011;76094;55.506;37.950;2024-02-26T04:16:18;10.80;;;3.50;;
85662;SDS011;76094;55.506;37.950;2024-02-26T04:18:44;6.50;;;2.95;;
85662;SDS011;76094;55.506;37.950;2024-02-26T04:21:11;5.32;;;2.60;;
85662;SDS011;76094;55.506;37.950;2024-02-26T04:23:37;8.45;;;3.22;;
85662;SDS011;76094;55.506;37.950;2024-02-26T04:26:04;8.15;;;3.00;;
85662;SDS011;76094;55.506;37.950;2024-02-26T04:28:31;4.78;;;2.70;;
85662;SDS011;76094;55.506;37.950;2024-02-26T04:30:57;8.63;;;2.80;;
85662;SDS011;76094;55.506;37.950;2024-02-26T04:33:23;6.40;;;2.75;;
85662;SDS011;76094;55.506;37.950;2024-02-26T04:35:49;6.72;;;2.78;;
85662;SDS011;76094;55.506;37.950;2024-02-26T04:38:16;6.32;;;2.90;;
85662;SDS011;76094;55.506;37.950;2024-02-26T04:40:42;4.78;;;2.80;;
85662;SDS011;76094;55.506;37.950;2024-02-26T04:43:08;8.30;;;3.38;;
85662;SDS011;76094;55.506;37.950;2024-02-26T04:45:35;7.50;;;3.42;;
85662;SDS011;76094;55.506;37.950;2024-02-26T04:48:01;6.45;;;3.20;;
85662;SDS011;76094;55.506;37.950;2024-02-26T04:50:28;5.55;;;3.10;;
85662;SDS011;76094;55.506;37.950;2024-02-26T04:52:54;5.10;;;3.00;;
85662;SDS011;76094;55.506;37.950;2024-02-26T04:55:20;6.70;;;3.60;;
85662;SDS011;76094;55.506;37.950;2024-02-26T04:57:47;6.68;;;3.40;;
85662;SDS011;76094;55.506;37.950;2024-02-26T05:00:13;5.20;;;2.42;;
85662;SDS011;76094;55.506;37.950;2024-02-26T05:02:40;5.32;;;3.00;;
85662;SDS011;76094;55.506;37.950;2024-02-26T05:05:07;8.55;;;2.95;;
85662;SDS011;76094;55.506;37.950;2024-02-26T05:07:39;10.05;;;3.30;;
85662;SDS011;76094;55.506;37.950;2024-02-26T05:10:07;5.22;;;2.60;;
85662;SDS011;76094;55.506;37.950;2024-02-26T05:12:33;6.70;;;3.28;;
85662;SDS011;76094;55.506;37.950;2024-02-26T05:15:02;5.93;;;3.20;;
85662;SDS011;76094;55.506;37.950;2024-02-26T05:17:31;8.65;;;3.38;;
85662;SDS011;76094;55.506;37.950;2024-02-26T05:19:58;8.98;;;3.28;;
85662;SDS011;76094;55.506;37.950;2024-02-26T05:22:24;5.90;;;3.10;;
85662;SDS011;76094;55.506;37.950;2024-02-26T05:24:50;8.50;;;3.70;;
85662;SDS011;76094;55.506;37.950;2024-02-26T05:27:17;6.55;;;2.85;;
85662;SDS011;76094;55.506;37.950;2024-02-26T05:29:43;13.32;;;3.35;;
85662;SDS011;76094;55.506;37.950;2024-02-26T05:32:10;7.25;;;3.28;;
85662;SDS011;76094;55.506;37.950;2024-02-26T05:34:36;6.75;;;3.42;;
85662;SDS011;76094;55.506;37.950;2024-02-26T05:37:03;7.05;;;3.00;;
85662;SDS011;76094;55.506;37.950;2024-02-26T05:39:29;9.32;;;3.83;;
85662;SDS011;76094;55.506;37.950;2024-02-26T05:41:55;12.73;;;4.15;;
85662;SDS011;76094;55.506;37.950;2024-02-26T05:44:23;5.32;;;3.00;;
85662;SDS011;76094;55.506;37.950;2024-02-26T05:46:52;5.00;;;3.13;;
85662;SDS011;76094;55.506;37.950;2024-02-26T05:49:19;7.13;;;3.05;;
85662;SDS011;76094;55.506;37.950;2024-02-26T05:51:45;8.95;;;3.72;;
85662;SDS011;76094;55.506;37.950;2024-02-26T05:54:11;5.40;;;2.85;;
85662;SDS011;76094;55.506;37.950;2024-02-26T05:56:37;4.35;;;2.42;;
85662;SDS011;76094;55.506;37.950;2024-02-26T05:59:04;8.73;;;3.33;;
85662;SDS011;76094;55.506;37.950;2024-02-26T06:01:31;8.13;;;3.58;;
85662;SDS011;76094;55.506;37.950;2024-02-26T06:03:58;15.77;;;3.47;;
85662;SDS011;76094;55.506;37.950;2024-02-26T06:06:24;8.93;;;3.03;;
85662;SDS011;76094;55.506;37.950;2024-02-26T06:08:50;6.95;;;2.78;;
85662;SDS011;76094;55.506;37.950;2024-02-26T06:11:17;14.25;;;3.55;;
85662;SDS011;76094;55.506;37.950;2024-02-26T06:13:43;7.13;;;3.20;;
85662;SDS011;76094;55.506;37.950;2024-02-26T06:16:10;13.43;;;3.50;;
85662;SDS011;76094;55.506;37.950;2024-02-26T06:18:36;12.63;;;3.97;;
85662;SDS011;76094;55.506;37.950;2024-02-26T06:21:03;9.10;;;3.08;;
85662;SDS011;76094;55.506;37.950;2024-02-26T06:23:29;8.60;;;3.65;;
85662;SDS011;76094;55.506;37.950;2024-02-26T06:25:55;8.68;;;3.28;;
85662;SDS011;76094;55.506;37.950;2024-02-26T06:28:22;34.38;;;3.92;;
85662;SDS011;76094;55.506;37.950;2024-02-26T06:30:48;10.25;;;3.15;;
85662;SDS011;76094;55.506;37.950;2024-02-26T06:33:17;9.13;;;3.60;;
85662;SDS011;76094;55.506;37.950;2024-02-26T06:35:44;7.95;;;3.50;;
85662;SDS011;76094;55.506;37.950;2024-02-26T06:38:10;8.93;;;3.30;;
85662;SDS011;76094;55.506;37.950;2024-02-26T06:40:38;6.47;;;2.83;;
85662;SDS011;76094;55.506;37.950;2024-02-26T06:43:04;8.95;;;3.15;;
85662;SDS011;76094;55.506;37.950;2024-02-26T06:45:31;8.75;;;3.45;;
85662;SDS011;76094;55.506;37.950;2024-02-26T06:47:58;7.18;;;3.05;;
85662;SDS011;76094;55.506;37.950;2024-02-26T06:50:25;8.75;;;3.33;;
85662;SDS011;76094;55.506;37.950;2024-02-26T06:52:51;10.43;;;3.45;;
85662;SDS011;76094;55.506;37.950;2024-02-26T06:55:17;7.25;;;3.60;;
85662;SDS011;76094;55.506;37.950;2024-02-26T06:57:44;6.60;;;3.33;;
85662;SDS011;76094;55.506;37.950;2024-02-26T07:00:10;6.90;;;3.20;;
85662;SDS011;76094;55.506;37.950;2024-02-26T07:02:42;4.75;;;3.03;;
85662;SDS011;76094;55.506;37.950;2024-02-26T07:05:09;10.30;;;4.03;;
85662;SDS011;76094;55.506;37.950;2024-02-26T07:07:36;4.90;;;2.92;;
85662;SDS011;76094;55.506;37.950;2024-02-26T07:10:02;7.35;;;3.17;;
85662;SDS011;76094;55.506;37.950;2024-02-26T07:12:30;5.53;;;3.35;;
85662;SDS011;76094;55.506;37.950;2024-02-26T07:14:57;6.93;;;3.42;;
85662;SDS011;76094;55.506;37.950;2024-02-26T07:17:24;14.63;;;3.53;;
85662;SDS011;76094;55.506;37.950;2024-02-26T07:19:50;9.98;;;3.30;;
85662;SDS011;76094;55.506;37.950;2024-02-26T07:22:17;5.70;;;3.17;;
85662;SDS011;76094;55.506;37.950;2024-02-26T07:24:43;8.25;;;3.60;;
85662;SDS011;76094;55.506;37.950;2024-02-26T07:27:09;7.32;;;4.05;;
85662;SDS011;76094;55.506;37.950;2024-02-26T07:29:36;13.27;;;5.40;;
85662;SDS011;76094;55.506;37.950;2024-02-26T07:32:02;5.90;;;3.25;;
85662;SDS011;76094;55.506;37.950;2024-02-26T07:34:28;10.13;;;3.45;;
85662;SDS011;76094;55.506;37.950;2024-02-26T07:36:56;10.77;;;3.30;;
85662;SDS011;76094;55.506;37.950;2024-02-26T07:39:22;8.23;;;3.60;;
85662;SDS011;76094;55.506;37.950;2024-02-26T07:41:49;16.92;;;3.60;;
85662;SDS011;76094;55.506;37.950;2024-02-26T07:44:17;7.82;;;3.97;;
85662;SDS011;76094;55.506;37.950;2024-02-26T07:46:44;12.82;;;4.13;;
85662;SDS011;76094;55.506;37.950;2024-02-26T07:49:11;10.85;;;3.58;;
85662;SDS011;76094;55.506;37.950;2024-02-26T07:51:37;9.93;;;4.00;;
85662;SDS011;76094;55.506;37.950;2024-02-26T07:54:03;14.30;;;4.35;;
85662;SDS011;76094;55.506;37.950;2024-02-26T07:56:30;9.48;;;3.90;;
85662;SDS011;76094;55.506;37.950;2024-02-26T07:58:56;16.38;;;3.63;;
85662;SDS011;76094;55.506;37.950;2024-02-26T08:01:23;10.52;;;4.10;;
85662;SDS011;76094;55.506;37.950;2024-02-26T08:03:49;11.35;;;3.58;;
85662;SDS011;76094;55.506;37.950;2024-02-26T08:06:16;8.07;;;3.97;;
85662;SDS011;76094;55.506;37.950;2024-02-26T08:08:42;8.25;;;4.18;;
85662;SDS011;76094;55.506;37.950;2024-02-26T08:11:09;11.10;;;4.32;;
85662;SDS011;76094;55.506;37.950;2024-02-26T08:13:36;12.90;;;4.22;;
85662;SDS011;76094;55.506;37.950;2024-02-26T08:16:02;11.23;;;4.05;;
85662;SDS011;76094;55.506;37.950;2024-02-26T08:18:29;13.75;;;4.20;;
85662;SDS011;76094;55.506;37.950;2024-02-26T08:20:55;12.00;;;5.50;;
85662;SDS011;76094;55.506;37.950;2024-02-26T08:23:21;10.52;;;4.32;;
85662;SDS011;76094;55.506;37.950;2024-02-26T08:25:48;12.50;;;4.40;;
85662;SDS011;76094;55.506;37.950;2024-02-26T08:28:14;9.65;;;4.20;;
85662;SDS011;76094;55.506;37.950;2024-02-26T08:30:44;10.43;;;4.13;;
85662;SDS011;76094;55.506;37.950;2024-02-26T08:33:10;11.02;;;4.05;;
85662;SDS011;76094;55.506;37.950;2024-02-26T08:35:37;15.23;;;4.10;;
85662;SDS011;76094;55.506;37.950;2024-02-26T08:38:04;8.45;;;3.97;;
85662;SDS011;76094;55.506;37.950;2024-02-26T08:40:30;12.10;;;4.57;;
85662;SDS011;76094;55.506;37.950;2024-02-26T08:42:56;9.88;;;4.38;;
85662;SDS011;76094;55.506;37.950;2024-02-26T08:45:23;8.02;;;4.05;;
85662;SDS011;76094;55.506;37.950;2024-02-26T08:47:52;13.05;;;4.20;;
85662;SDS011;76094;55.506;37.950;2024-02-26T08:50:18;18.83;;;4.60;;
85662;SDS011;76094;55.506;37.950;2024-02-26T08:52:44;16.50;;;5.05;;
85662;SDS011;76094;55.506;37.950;2024-02-26T08:55:14;12.88;;;4.60;;
85662;SDS011;76094;55.506;37.950;2024-02-26T08:57:41;10.85;;;4.45;;
85662;SDS011;76094;55.506;37.950;2024-02-26T09:00:07;6.35;;;3.72;;
85662;SDS011;76094;55.506;37.950;2024-02-26T09:02:34;13.48;;;4.53;;
85662;SDS011;76094;55.506;37.950;2024-02-26T09:05:01;16.17;;;4.35;;
85662;SDS011;76094;55.506;37.950;2024-02-26T09:07:27;6.13;;;4.10;;
85662;SDS011;76094;55.506;37.950;2024-02-26T09:09:53;10.50;;;3.60;;
85662;SDS011;76094;55.506;37.950;2024-02-26T09:12:20;12.70;;;4.68;;
85662;SDS011;76094;55.506;37.950;2024-02-26T09:14:47;14.60;;;4.30;;
85662;SDS011;76094;55.506;37.950;2024-02-26T09:17:13;12.60;;;4.38;;
85662;SDS011;76094;55.506;37.950;2024-02-26T09:19:39;13.63;;;3.85;;
85662;SDS011;76094;55.506;37.950;2024-02-26T09:22:07;8.35;;;4.05;;
85662;SDS011;76094;55.506;37.950;2024-02-26T09:24:33;11.38;;;3.70;;
85662;SDS011;76094;55.506;37.950;2024-02-26T09:26:59;21.05;;;3.88;;
85662;SDS011;76094;55.506;37.950;2024-02-26T09:29:25;12.95;;;4.25;;
85662;SDS011;76094;55.506;37.950;2024-02-26T09:31:53;13.32;;;4.22;;
85662;SDS011;76094;55.506;37.950;2024-02-26T09:34:19;12.93;;;3.40;;
85662;SDS011;76094;55.506;37.950;2024-02-26T09:36:46;8.93;;;4.07;;
85662;SDS011;76094;55.506;37.950;2024-02-26T09:39:12;10.60;;;5.07;;
85662;SDS011;76094;55.506;37.950;2024-02-26T09:41:40;13.90;;;4.80;;
85662;SDS011;76094;55.506;37.950;2024-02-26T09:44:07;8.95;;;4.47;;
85662;SDS011;76094;55.506;37.950;2024-02-26T09:46:34;22.15;;;5.10;;
85662;SDS011;76094;55.506;37.950;2024-02-26T09:49:01;11.13;;;5.10;;
85662;SDS011;76094;55.506;37.950;2024-02-26T09:51:27;16.85;;;4.20;;
85662;SDS011;76094;55.506;37.950;2024-02-26T09:53:54;12.50;;;4.53;;
85662;SDS011;76094;55.506;37.950;2024-02-26T09:56:22;11.95;;;3.90;;
85662;SDS011;76094;55.506;37.950;2024-02-26T09:58:49;8.18;;;4.25;;
85662;SDS011;76094;55.506;37.950;2024-02-26T10:01:19;9.35;;;3.95;;
85662;SDS011;76094;55.506;37.950;2024-02-26T10:03:52;11.52;;;3.88;;
85662;SDS011;76094;55.506;37.950;2024-02-26T10:06:21;8.50;;;3.60;;
85662;SDS011;76094;55.506;37.950;2024-02-26T10:08:47;20.23;;;4.38;;
85662;SDS011;76094;55.506;37.950;2024-02-26T10:11:14;8.45;;;4.32;;
85662;SDS011;76094;55.506;37.950;2024-02-26T10:13:41;14.00;;;4.30;;
85662;SDS011;76094;55.506;37.950;2024-02-26T10:16:07;10.73;;;3.83;;
85662;SDS011;76094;55.506;37.950;2024-02-26T10:18:46;12.88;;;4.57;;
85662;SDS011;76094;55.506;37.950;2024-02-26T10:21:16;9.35;;;3.92;;
85662;SDS011;76094;55.506;37.950;2024-02-26T10:23:44;13.32;;;4.88;;
85662;SDS011;76094;55.506;37.950;2024-02-26T10:26:20;13.80;;;3.92;;
85662;SDS011;76094;55.506;37.950;2024-02-26T10:28:47;10.88;;;4.07;;
85662;SDS011;76094;55.506;37.950;2024-02-26T10:31:14;12.52;;;4.03;;
85662;SDS011;76094;55.506;37.950;2024-02-26T10:33:42;11.18;;;4.63;;
85662;SDS011;76094;55.506;37.950;2024-02-26T10:36:09;15.35;;;4.22;;
85662;SDS011;76094;55.506;37.950;2024-02-26T10:38:36;15.23;;;4.05;;
85662;SDS011;76094;55.506;37.950;2024-02-26T10:41:06;13.57;;;4.05;;
85662;SDS011;76094;55.506;37.950;2024-02-26T10:43:32;12.98;;;4.03;;
85662;SDS011;76094;55.506;37.950;2024-02-26T10:45:59;11.68;;;4.50;;
85662;SDS011;76094;55.506;37.950;2024-02-26T10:48:25;9.27;;;4.60;;
85662;SDS011;76094;55.506;37.950;2024-02-26T10:50:52;14.38;;;4.22;;
85662;SDS011;76094;55.506;37.950;2024-02-26T10:53:22;15.45;;;4.45;;
85662;SDS011;76094;55.506;37.950;2024-02-26T10:56:01;13.98;;;4.45;;
85662;SDS011;76094;55.506;37.950;2024-02-26T10:58:29;13.50;;;4.00;;
85662;SDS011;76094;55.506;37.950;2024-02-26T11:00:56;20.00;;;5.20;;
85662;SDS011;76094;55.506;37.950;2024-02-26T11:03:24;11.52;;;4.55;;
85662;SDS011;76094;55.506;37.950;2024-02-26T11:05:51;18.48;;;4.80;;
85662;SDS011;76094;55.506;37.950;2024-02-26T11:08:18;10.23;;;4.00;;
85662;SDS011;76094;55.506;37.950;2024-02-26T11:10:46;13.68;;;4.80;;
85662;SDS011;76094;55.506;37.950;2024-02-26T11:13:15;9.07;;;4.03;;
85662;SDS011;76094;55.506;37.950;2024-02-26T11:15:46;12.23;;;4.32;;
85662;SDS011;76094;55.506;37.950;2024-02-26T11:18:17;10.98;;;5.15;;
85662;SDS011;76094;55.506;37.950;2024-02-26T11:20:44;12.23;;;5.03;;
85662;SDS011;76094;55.506;37.950;2024-02-26T11:23:12;9.10;;;4.75;;
85662;SDS011;76094;55.506;37.950;2024-02-26T11:25:38;15.82;;;5.60;;
85662;SDS011;76094;55.506;37.950;2024-02-26T11:28:11;9.20;;;4.88;;
85662;SDS011;76094;55.506;37.950;2024-02-26T11:30:42;20.10;;;6.05;;
85662;SDS011;76094;55.506;37.950;2024-02-26T11:33:10;18.95;;;5.68;;
85662;SDS011;76094;55.506;37.950;2024-02-26T11:35:38;19.17;;;4.93;;
85662;SDS011;76094;55.506;37.950;2024-02-26T11:38:05;13.50;;;4.32;;
85662;SDS011;76094;55.506;37.950;2024-02-26T11:40:33;9.88;;;4.10;;
85662;SDS011;76094;55.506;37.950;2024-02-26T11:43:07;15.95;;;4.47;;
85662;SDS011;76094;55.506;37.950;2024-02-26T11:48:12;14.90;;;4.18;;
85662;SDS011;76094;55.506;37.950;2024-02-26T11:50:41;7.07;;;4.07;;
85662;SDS011;76094;55.506;37.950;2024-02-26T11:53:27;16.45;;;4.38;;
85662;SDS011;76094;55.506;37.950;2024-02-26T11:58:45;12.85;;;4.55;;
85662;SDS011;76094;55.506;37.950;2024-02-26T12:04:07;17.10;;;4.53;;
85662;SDS011;76094;55.506;37.950;2024-02-26T12:09:16;11.82;;;3.13;;
85662;SDS011;76094;55.506;37.950;2024-02-26T12:11:57;15.73;;;4.00;;
85662;SDS011;76094;55.506;37.950;2024-02-26T12:14:26;6.50;;;3.42;;
85662;SDS011;76094;55.506;37.950;2024-02-26T12:16:53;8.52;;;4.30;;
85662;SDS011;76094;55.506;37.950;2024-02-26T12:19:21;14.55;;;4.07;;
85662;SDS011;76094;55.506;37.950;2024-02-26T12:21:51;12.48;;;4.00;;
85662;SDS011;76094;55.506;37.950;2024-02-26T12:24:19;7.45;;;3.53;;
85662;SDS011;76094;55.506;37.950;2024-02-26T12:26:46;10.55;;;3.40;;
85662;SDS011;76094;55.506;37.950;2024-02-26T12:29:13;12.38;;;3.88;;
85662;SDS011;76094;55.506;37.950;2024-02-26T12:31:39;10.05;;;3.67;;
85662;SDS011;76094;55.506;37.950;2024-02-26T12:34:06;5.95;;;3.30;;
85662;SDS011;76094;55.506;37.950;2024-02-26T12:36:35;8.52;;;3.42;;
85662;SDS011;76094;55.506;37.950;2024-02-26T12:39:02;7.53;;;3.38;;
85662;SDS011;76094;55.506;37.950;2024-02-26T12:41:28;7.30;;;3.20;;
85662;SDS011;76094;55.506;37.950;2024-02-26T12:43:56;6.70;;;2.83;;
85662;SDS011;76094;55.506;37.950;2024-02-26T12:46:24;8.18;;;3.50;;
85662;SDS011;76094;55.506;37.950;2024-02-26T12:48:51;6.53;;;2.80;;
85662;SDS011;76094;55.506;37.950;2024-02-26T12:51:17;4.85;;;2.63;;
85662;SDS011;76094;55.506;37.950;2024-02-26T12:53:45;9.20;;;3.20;;
85662;SDS011;76094;55.506;37.950;2024-02-26T12:56:12;10.07;;;3.22;;
85662;SDS011;76094;55.506;37.950;2024-02-26T12:58:38;6.82;;;2.97;;
85662;SDS011;76094;55.506;37.950;2024-02-26T13:01:06;9.50;;;4.30;;
85662;SDS011;76094;55.506;37.950;2024-02-26T13:03:33;5.68;;;3.17;;
85662;SDS011;76094;55.506;37.950;2024-02-26T13:06:01;12.45;;;3.28;;
85662;SDS011;76094;55.506;37.950;2024-02-26T13:08:28;6.00;;;2.83;;
85662;SDS011;76094;55.506;37.950;2024-02-26T13:10:54;5.88;;;2.53;;
85662;SDS011;76094;55.506;37.950;2024-02-26T13:13:22;5.15;;;2.30;;
85662;SDS011;76094;55.506;37.950;2024-02-26T13:15:48;9.35;;;3.17;;
85662;SDS011;76094;55.506;37.950;2024-02-26T13:18:17;6.50;;;3.33;;
85662;SDS011;76094;55.506;37.950;2024-02-26T13:20:43;12.30;;;3.40;;
85662;SDS011;76094;55.506;37.950;2024-02-26T13:23:10;7.88;;;3.15;;
85662;SDS011;76094;55.506;37.950;2024-02-26T13:25:37;6.78;;;3.25;;
85662;SDS011;76094;55.506;37.950;2024-02-26T13:30:51;8.50;;;3.38;;
85662;SDS011;76094;55.506;37.950;2024-02-26T13:33:18;9.57;;;2.65;;
85662;SDS011;76094;55.506;37.950;2024-02-26T13:35:45;8.25;;;3.15;;
85662;SDS011;76094;55.506;37.950;2024-02-26T13:38:11;9.20;;;3.22;;
85662;SDS011;76094;55.506;37.950;2024-02-26T13:40:38;7.03;;;3.13;;
85662;SDS011;76094;55.506;37.950;2024-02-26T13:43:05;7.95;;;3.28;;
85662;SDS011;76094;55.506;37.950;2024-02-26T13:45:35;9.55;;;3.25;;
85662;SDS011;76094;55.506;37.950;2024-02-26T13:48:07;10.82;;;3.03;;
85662;SDS011;76094;55.506;37.950;2024-02-26T13:50:36;5.15;;;2.85;;
85662;SDS011;76094;55.506;37.950;2024-02-26T13:53:02;13.07;;;3.40;;
85662;SDS011;76094;55.506;37.950;2024-02-26T13:55:30;7.45;;;3.10;;
85662;SDS011;76094;55.506;37.950;2024-02-26T13:57:58;8.40;;;3.42;;
85662;SDS011;76094;55.506;37.950;2024-02-26T14:00:28;10.00;;;4.20;;
85662;SDS011;76094;55.506;37.950;2024-02-26T14:02:58;9.93;;;3.20;;
85662;SDS011;76094;55.506;37.950;2024-02-26T14:05:24;7.68;;;3.33;;
85662;SDS011;76094;55.506;37.950;2024-02-26T14:07:51;17.63;;;3.60;;
85662;SDS011;76094;55.506;37.950;2024-02-26T14:10:18;9.20;;;3.63;;
85662;SDS011;76094;55.506;37.950;2024-02-26T14:12:45;6.63;;;3.35;;
85662;SDS011;76094;55.506;37.950;2024-02-26T14:15:12;13.57;;;3.33;;
85662;SDS011;76094;55.506;37.950;2024-02-26T14:17:38;14.18;;;3.65;;
85662;SDS011;76094;55.506;37.950;2024-02-26T14:20:05;6.72;;;3.28;;
85662;SDS011;76094;55.506;37.950;2024-02-26T14:22:33;8.18;;;3.03;;
85662;SDS011;76094;55.506;37.950;2024-02-26T14:25:00;8.88;;;3.50;;
85662;SDS011;76094;55.506;37.950;2024-02-26T14:27:27;8.02;;;3.47;;
85662;SDS011;76094;55.506;37.950;2024-02-26T14:29:53;9.07;;;3.40;;
85662;SDS011;76094;55.506;37.950;2024-02-26T14:32:22;9.38;;;3.97;;
85662;SDS011;76094;55.506;37.950;2024-02-26T14:34:48;8.93;;;3.78;;
85662;SDS011;76094;55.506;37.950;2024-02-26T14:37:15;5.70;;;2.72;;
85662;SDS011;76094;55.506;37.950;2024-02-26T14:39:41;8.43;;;3.00;;
85662;SDS011;76094;55.506;37.950;2024-02-26T14:42:08;6.28;;;3.10;;
85662;SDS011;76094;55.506;37.950;2024-02-26T14:44:34;7.18;;;3.33;;